createdAt,value
2022-10-11T00:00:56.832Z,3.85
2022-10-11T00:03:42.032Z,3.50
2022-10-11T00:06:27.354Z,3.75
2022-10-11T00:09:13.408Z,4.30
2022-10-11T00:12:02.158Z,3.80
2022-10-11T00:14:47.464Z,3.55
2022-10-11T00:17:33.546Z,4.70
2022-10-11T00:20:19.008Z,5.18
2022-10-11T00:23:04.659Z,5.70
2022-10-11T00:25:57.646Z,5.53
2022-10-11T00:28:43.876Z,3.75
2022-10-11T00:31:34.639Z,3.55
2022-10-11T00:34:20.778Z,4.85
2022-10-11T00:37:06.465Z,4.55
2022-10-11T00:39:52.011Z,4.65
2022-10-11T00:42:37.544Z,3.80
2022-10-11T00:45:32.323Z,3.50
2022-10-11T00:48:24.095Z,4.32
2022-10-11T00:51:42.718Z,4.28
2022-10-11T00:54:31.340Z,3.92
2022-10-11T00:57:21.915Z,3.90
2022-10-11T01:00:10.546Z,4.90
2022-10-11T01:02:56.168Z,3.47
2022-10-11T01:05:41.982Z,3.97
2022-10-11T01:08:27.568Z,4.15
2022-10-11T01:11:17.163Z,4.22
2022-10-11T01:14:09.333Z,3.70
2022-10-11T01:17:08.134Z,3.88
2022-10-11T01:20:35.394Z,4.50
2022-10-11T01:23:47.553Z,4.13
2022-10-11T01:26:58.168Z,4.30
2022-10-11T01:30:18.827Z,4.68
2022-10-11T01:33:35.600Z,4.22
2022-10-11T01:36:42.129Z,4.32
2022-10-11T01:39:47.036Z,3.95
2022-10-11T01:42:32.810Z,3.55
2022-10-11T01:45:29.870Z,3.67
2022-10-11T01:48:16.146Z,4.30
2022-10-11T01:51:05.188Z,4.15
2022-10-11T01:53:53.593Z,4.97
2022-10-11T01:57:07.981Z,3.42
2022-10-11T01:59:59.713Z,3.80
2022-10-11T02:03:20.025Z,4.78
2022-10-11T02:06:10.795Z,5.07
2022-10-11T02:09:17.153Z,3.67
2022-10-11T02:12:09.092Z,3.78
2022-10-11T02:14:57.824Z,3.65
2022-10-11T02:17:57.088Z,2.83
2022-10-11T02:20:45.420Z,3.42
2022-10-11T02:23:34.736Z,4.60
2022-10-11T02:26:21.923Z,3.40
2022-10-11T02:29:11.187Z,4.40
2022-10-11T02:31:58.744Z,5.93
2022-10-11T02:34:57.804Z,4.35
2022-10-11T02:37:52.337Z,3.70
2022-10-11T02:40:42.743Z,4.53
2022-10-11T02:43:43.349Z,4.20
2022-10-11T02:46:30.610Z,3.72
2022-10-11T02:49:17.024Z,4.88
2022-10-11T02:52:10.043Z,4.25
2022-10-11T02:54:56.626Z,5.07
2022-10-11T02:57:42.222Z,3.28
2022-10-11T03:00:31.880Z,3.90
2022-10-11T03:03:17.358Z,3.63
2022-10-11T03:06:04.539Z,3.63
2022-10-11T03:08:50.082Z,3.20
2022-10-11T03:11:35.678Z,4.20
2022-10-11T03:14:25.858Z,4.70
2022-10-11T03:17:34.443Z,3.38
2022-10-11T03:20:16.816Z,2.85
2022-10-11T03:23:02.363Z,4.03
2022-10-11T03:26:02.259Z,3.60
2022-10-11T03:28:48.259Z,4.63
2022-10-11T03:31:33.736Z,3.40
2022-10-11T03:34:25.477Z,3.80
2022-10-11T03:37:13.093Z,4.38
2022-10-11T03:39:58.656Z,3.47
2022-10-11T03:42:50.110Z,3.97
2022-10-11T03:45:36.500Z,5.40
2022-10-11T03:48:34.474Z,3.53
2022-10-11T03:51:20.867Z,4.32
2022-10-11T03:54:06.283Z,4.97
2022-10-11T03:56:51.930Z,4.43
2022-10-11T03:59:37.450Z,2.67
2022-10-11T04:02:23.109Z,4.47
2022-10-11T04:05:27.864Z,3.80
2022-10-11T04:08:16.935Z,3.95
2022-10-11T04:11:02.521Z,3.80
2022-10-11T04:13:58.791Z,3.85
2022-10-11T04:16:50.229Z,4.20
2022-10-11T04:19:38.418Z,3.60
2022-10-11T04:22:23.814Z,3.50
2022-10-11T04:25:09.727Z,4.22
2022-10-11T04:27:54.825Z,4.32
2022-10-11T04:30:40.492Z,5.70
2022-10-11T04:33:31.640Z,3.80
2022-10-11T04:36:16.784Z,2.85
2022-10-11T04:39:02.524Z,3.83
2022-10-11T04:41:48.225Z,4.50
2022-10-11T04:44:36.433Z,3.50
2022-10-11T04:47:22.914Z,3.88
2022-10-11T04:50:08.651Z,3.75
2022-10-11T04:52:53.727Z,3.80
2022-10-11T04:55:39.287Z,3.55
2022-10-11T04:58:30.834Z,3.70
2022-10-11T05:01:21.712Z,3.17
2022-10-11T05:04:07.441Z,3.08
2022-10-11T05:06:52.778Z,3.58
2022-10-11T05:09:38.065Z,3.50
2022-10-11T05:12:24.309Z,3.30
2022-10-11T05:15:10.346Z,3.63
2022-10-11T05:17:55.938Z,3.10
2022-10-11T05:20:41.649Z,4.05
2022-10-11T05:23:28.319Z,3.42
2022-10-11T05:26:15.367Z,3.35
2022-10-11T05:29:09.027Z,3.42
2022-10-11T05:31:56.686Z,3.10
2022-10-11T05:34:42.102Z,3.22
2022-10-11T05:37:27.615Z,4.22
2022-10-11T05:40:13.318Z,2.88
2022-10-11T05:42:59.856Z,3.45
2022-10-11T05:45:46.537Z,4.35
2022-10-11T05:48:31.863Z,4.47
2022-10-11T05:51:17.055Z,4.72
2022-10-11T05:54:02.942Z,3.83
2022-10-11T05:56:48.682Z,3.40
2022-10-11T05:59:53.777Z,3.53
2022-10-11T06:02:46.223Z,4.75
2022-10-11T06:05:31.611Z,3.40
2022-10-11T06:08:17.296Z,3.83
2022-10-11T06:11:14.354Z,3.90
2022-10-11T06:13:59.939Z,3.72
2022-10-11T06:16:45.553Z,4.28
2022-10-11T06:19:31.083Z,3.75
2022-10-11T06:22:16.379Z,3.63
2022-10-11T06:25:02.020Z,4.30
2022-10-11T06:27:47.214Z,4.18
2022-10-11T06:30:32.639Z,3.50
2022-10-11T06:33:18.362Z,3.70
2022-10-11T06:36:07.904Z,4.43
2022-10-11T06:38:55.051Z,3.92
2022-10-11T06:41:40.691Z,3.55
2022-10-11T06:44:26.830Z,3.58
2022-10-11T06:47:12.530Z,3.92
2022-10-11T06:49:57.906Z,3.35
2022-10-11T06:52:43.468Z,3.83
2022-10-11T06:55:31.342Z,4.10
2022-10-11T06:58:17.652Z,3.90
2022-10-11T07:01:09.071Z,3.67
2022-10-11T07:03:56.170Z,3.78
2022-10-11T07:06:41.990Z,4.13
2022-10-11T07:09:27.164Z,3.15
2022-10-11T07:12:12.683Z,3.88
2022-10-11T07:14:58.236Z,4.30
2022-10-11T07:17:43.767Z,4.00
2022-10-11T07:20:29.391Z,3.47
2022-10-11T07:23:15.314Z,4.15
2022-10-11T07:26:00.750Z,4.15
2022-10-11T07:28:47.047Z,4.85
2022-10-11T07:31:32.666Z,4.38
2022-10-11T07:34:20.143Z,3.58
2022-10-11T07:37:05.437Z,4.05
2022-10-11T07:39:50.888Z,4.45
2022-10-11T07:42:36.887Z,3.38
2022-10-11T07:45:21.928Z,3.65
2022-10-11T07:48:07.494Z,3.97
2022-10-11T07:50:53.074Z,3.97
2022-10-11T07:53:47.046Z,4.43
2022-10-11T07:56:32.215Z,3.58
2022-10-11T07:59:17.798Z,4.28
2022-10-11T08:02:03.596Z,3.72
2022-10-11T08:04:48.819Z,4.22
2022-10-11T08:07:34.315Z,4.03
2022-10-11T08:10:20.346Z,3.70
2022-10-11T08:13:07.395Z,3.47
2022-10-11T08:15:53.361Z,4.47
2022-10-11T08:18:38.616Z,4.15
2022-10-11T08:21:24.980Z,4.55
2022-10-11T08:24:13.965Z,4.00
2022-10-11T08:26:59.252Z,3.83
2022-10-11T08:29:44.598Z,5.18
2022-10-11T08:32:30.210Z,4.10
2022-10-11T08:35:15.820Z,3.28
2022-10-11T08:38:01.399Z,3.97
2022-10-11T08:40:55.234Z,5.00
2022-10-11T08:44:09.944Z,3.88
2022-10-11T08:47:23.623Z,4.68
2022-10-11T08:53:33.395Z,4.15
2022-10-11T08:56:20.633Z,4.97
2022-10-11T08:59:30.169Z,4.60
2022-10-11T09:02:20.128Z,5.20
2022-10-11T09:05:06.195Z,4.13
2022-10-11T09:08:15.101Z,4.75
2022-10-11T09:11:12.659Z,4.10
2022-10-11T09:14:22.699Z,4.30
2022-10-11T09:21:31.045Z,5.53
2022-10-11T10:18:44.315Z,4.20
2022-10-11T10:22:02.408Z,3.92
2022-10-11T10:28:47.027Z,4.93
2022-10-11T10:32:14.374Z,4.88
2022-10-11T10:35:53.223Z,4.75
2022-10-11T10:39:10.365Z,3.72
2022-10-11T10:41:57.843Z,3.90
2022-10-11T10:49:34.584Z,2.92
2022-10-11T10:57:32.197Z,3.30
2022-10-11T11:11:55.550Z,3.35
2022-10-11T11:27:12.811Z,3.58
2022-10-11T11:35:14.009Z,3.53
2022-10-11T11:47:49.173Z,2.97
2022-10-11T11:53:34.520Z,3.20
2022-10-11T11:55:38.557Z,2.90
2022-10-11T12:02:46.117Z,4.03
2022-10-11T12:06:15.220Z,2.70
2022-10-11T12:15:07.390Z,2.45
2022-10-11T12:39:21.843Z,2.40
2022-10-11T12:47:44.288Z,2.60
2022-10-11T12:55:08.707Z,2.92
2022-10-11T13:03:33.274Z,2.92
2022-10-11T13:07:18.875Z,2.50
2022-10-11T13:10:52.777Z,2.63
2022-10-11T13:14:21.061Z,2.50
2022-10-11T13:18:15.073Z,3.85
2022-10-11T13:24:58.117Z,2.80
2022-10-11T13:28:44.972Z,2.13
2022-10-11T13:31:42.878Z,2.65
2022-10-11T13:34:53.020Z,3.05
2022-10-11T13:49:06.457Z,2.58
2022-10-11T13:53:05.027Z,3.00
2022-10-11T13:55:54.339Z,2.67
2022-10-11T13:59:32.685Z,2.30
2022-10-11T14:20:23.671Z,2.28
2022-10-11T14:41:52.497Z,2.65
2022-10-11T14:45:20.209Z,2.90
2022-10-11T14:55:07.039Z,2.33
2022-10-11T14:57:01.724Z,2.28
2022-10-11T15:01:05.853Z,2.40
2022-10-11T15:04:20.745Z,2.15
2022-10-11T15:08:03.694Z,2.60
2022-10-11T15:10:57.082Z,1.83
2022-10-11T15:36:17.248Z,1.42
2022-10-11T15:40:09.533Z,2.25
2022-10-11T15:46:15.555Z,2.03
2022-10-11T15:54:29.285Z,1.80
2022-10-11T16:04:15.727Z,2.22
2022-10-11T16:19:33.881Z,2.10
2022-10-11T16:22:46.398Z,2.13
2022-10-11T16:26:24.068Z,2.33
2022-10-11T16:36:27.242Z,2.47
2022-10-11T16:56:51.220Z,2.15
2022-10-11T17:00:29.847Z,2.30
2022-10-11T17:03:41.897Z,2.80
2022-10-11T17:06:37.202Z,3.45
2022-10-11T17:09:51.433Z,2.42
2022-10-11T17:13:11.860Z,3.28
2022-10-11T17:20:41.179Z,2.70
2022-10-11T17:24:07.428Z,2.72
2022-10-11T17:27:29.866Z,3.25
2022-10-11T17:30:45.965Z,2.78
2022-10-11T17:34:26.578Z,2.90
2022-10-11T17:37:49.948Z,2.92
2022-10-11T17:42:01.217Z,3.33
2022-10-11T18:01:20.798Z,3.97
2022-10-11T18:04:38.984Z,3.95
2022-10-11T18:08:15.816Z,5.10
2022-10-11T18:12:17.932Z,5.75
2022-10-11T18:20:38.115Z,7.43
2022-10-11T18:23:59.806Z,7.85
2022-10-11T18:31:13.790Z,7.97
2022-10-11T18:41:42.232Z,10.20
2022-10-11T18:44:54.258Z,16.35
2022-10-11T18:47:40.507Z,22.83
2022-10-11T18:51:33.058Z,39.80
2022-10-11T18:54:31.951Z,19.42
2022-10-11T18:57:24.699Z,16.10
2022-10-11T19:00:41.578Z,10.77
2022-10-11T19:04:18.936Z,9.75
2022-10-11T19:07:20.708Z,8.82
2022-10-11T19:18:44.019Z,9.95
2022-10-11T19:21:39.062Z,9.23
2022-10-11T19:24:29.918Z,9.90
2022-10-11T19:35:37.416Z,9.23
2022-10-11T19:43:25.309Z,8.32
2022-10-11T19:46:52.066Z,8.75
2022-10-11T19:53:43.829Z,9.25
2022-10-11T19:56:51.871Z,12.02
2022-10-11T20:00:33.248Z,8.52
2022-10-11T20:03:40.637Z,7.85
2022-10-11T20:10:02.312Z,10.50
2022-10-11T20:12:54.792Z,9.48
2022-10-11T20:15:48.675Z,8.77
2022-10-11T20:18:49.462Z,11.10
2022-10-11T20:21:44.775Z,9.40
2022-10-11T20:24:44.036Z,7.68
2022-10-11T20:27:46.056Z,6.18
2022-10-11T20:30:38.337Z,7.72
2022-10-11T20:34:18.535Z,6.85
2022-10-11T20:37:35.402Z,7.18
2022-10-11T20:41:20.126Z,6.47
2022-10-11T20:45:06.680Z,5.85
2022-10-11T20:48:18.045Z,5.80
2022-10-11T20:51:54.971Z,5.55
2022-10-11T20:54:49.121Z,5.10
2022-10-11T20:57:36.560Z,5.90
2022-10-11T21:00:41.100Z,5.85
2022-10-11T21:03:57.761Z,6.07
2022-10-11T21:07:25.883Z,6.47
2022-10-11T21:10:21.144Z,6.03
2022-10-11T21:13:27.234Z,5.10
2022-10-11T21:16:38.710Z,5.17
2022-10-11T21:19:51.654Z,5.95
2022-10-11T21:22:39.082Z,5.40
2022-10-11T21:25:37.726Z,5.85
2022-10-11T21:28:52.537Z,5.70
2022-10-11T21:31:48.468Z,6.45
2022-10-11T21:34:40.036Z,5.68
2022-10-11T21:37:36.787Z,6.60
2022-10-11T21:40:37.202Z,5.78
2022-10-11T21:44:18.775Z,5.00
2022-10-11T21:47:05.923Z,5.20
2022-10-11T21:50:06.336Z,5.00
2022-10-11T21:53:39.914Z,5.03
2022-10-11T21:56:33.412Z,5.50
2022-10-11T21:59:22.853Z,5.38
2022-10-11T22:02:09.475Z,5.95
2022-10-11T22:05:35.446Z,5.65
2022-10-11T22:08:24.921Z,5.25
2022-10-11T22:11:13.659Z,6.35
2022-10-11T22:14:45.436Z,5.55
2022-10-11T22:19:00.929Z,5.22
2022-10-11T22:21:20.741Z,4.78
2022-10-11T22:24:10.166Z,4.90
2022-10-11T22:27:04.724Z,5.15
2022-10-11T22:30:03.653Z,5.43
2022-10-11T22:33:23.975Z,4.93
2022-10-11T22:36:37.796Z,4.93
2022-10-11T22:39:29.971Z,5.82
2022-10-11T22:42:31.389Z,5.68
2022-10-11T22:45:28.445Z,4.90
2022-10-11T22:48:17.233Z,6.05
2022-10-11T22:51:03.258Z,7.15
2022-10-11T22:53:56.695Z,6.00
2022-10-11T22:56:49.620Z,5.85
2022-10-11T22:59:36.896Z,8.02
2022-10-11T23:02:45.416Z,5.45
2022-10-11T23:05:31.007Z,5.45
2022-10-11T23:08:20.825Z,6.88
2022-10-11T23:11:30.898Z,5.38
2022-10-11T23:14:16.522Z,5.50
2022-10-11T23:17:24.424Z,5.40
2022-10-11T23:20:10.544Z,5.82
2022-10-11T23:22:58.417Z,6.07
2022-10-11T23:26:18.614Z,4.93
2022-10-11T23:29:04.494Z,4.45
2022-10-11T23:32:30.938Z,5.68
2022-10-11T23:35:18.129Z,5.57
2022-10-11T23:38:04.389Z,6.22
2022-10-11T23:40:54.928Z,5.40
2022-10-11T23:43:46.582Z,5.82
2022-10-11T23:46:44.905Z,5.43
2022-10-11T23:49:39.665Z,5.15
2022-10-11T23:52:28.167Z,5.03
2022-10-11T23:55:29.614Z,4.55
2022-10-11T23:58:28.728Z,5.27
